createdAt,value
2023-04-03T00:00:28.530Z,580.00
2023-04-03T00:01:28.484Z,581.00
2023-04-03T00:02:28.589Z,582.00
2023-04-03T00:03:28.490Z,580.00
2023-04-03T00:04:28.504Z,579.00
2023-04-03T00:05:28.539Z,579.00
2023-04-03T00:06:28.506Z,577.00
2023-04-03T00:07:28.522Z,578.00
2023-04-03T00:08:28.491Z,576.00
2023-04-03T00:09:28.508Z,575.00
2023-04-03T00:10:28.518Z,571.00
2023-04-03T00:11:28.499Z,574.00
2023-04-03T00:12:28.522Z,575.00
2023-04-03T00:13:28.501Z,573.00
2023-04-03T00:14:28.560Z,574.00
2023-04-03T00:15:28.569Z,576.00
2023-04-03T00:16:28.584Z,576.00
2023-04-03T00:17:28.575Z,578.00
2023-04-03T00:18:28.551Z,580.00
2023-04-03T00:19:28.550Z,583.00
2023-04-03T00:20:28.554Z,585.00
2023-04-03T00:21:28.561Z,583.00
2023-04-03T00:22:28.570Z,583.00
2023-04-03T00:23:28.562Z,582.00
2023-04-03T00:24:28.589Z,583.00
2023-04-03T00:25:28.599Z,581.00
2023-04-03T00:26:28.597Z,583.00
2023-04-03T00:27:28.567Z,583.00
2023-04-03T00:28:28.595Z,580.00
2023-04-03T00:29:28.577Z,579.00
2023-04-03T00:30:28.593Z,580.00
2023-04-03T00:31:28.697Z,580.00
2023-04-03T00:32:28.622Z,584.00
2023-04-03T00:33:28.633Z,581.00
2023-04-03T00:34:28.601Z,582.00
2023-04-03T00:35:28.666Z,582.00
2023-04-03T00:36:28.682Z,579.00
2023-04-03T00:37:28.643Z,579.00
2023-04-03T00:38:28.665Z,579.00
2023-04-03T00:39:28.655Z,580.00
2023-04-03T00:40:28.682Z,580.00
2023-04-03T00:41:29.313Z,578.00
2023-04-03T00:42:28.695Z,578.00
2023-04-03T00:43:28.712Z,577.00
2023-04-03T00:44:28.723Z,576.00
2023-04-03T00:45:28.742Z,574.00
2023-04-03T00:46:28.767Z,574.00
2023-04-03T00:47:28.760Z,576.00
2023-04-03T00:48:28.761Z,577.00
2023-04-03T00:49:28.764Z,579.00
2023-04-03T00:50:28.784Z,579.00
2023-04-03T00:51:28.794Z,580.00
2023-04-03T00:52:28.814Z,577.00
2023-04-03T00:53:28.783Z,578.00
2023-04-03T00:54:28.831Z,577.00
2023-04-03T00:55:28.868Z,578.00
2023-04-03T00:56:28.852Z,580.00
2023-04-03T00:57:28.865Z,580.00
2023-04-03T00:58:28.847Z,583.00
2023-04-03T00:59:28.874Z,585.00
2023-04-03T01:00:28.955Z,585.00
2023-04-03T01:01:28.911Z,585.00
2023-04-03T01:02:28.901Z,583.00
2023-04-03T01:03:28.898Z,583.00
2023-04-03T01:04:28.977Z,583.00
2023-04-03T01:05:28.968Z,584.00
2023-04-03T01:06:28.919Z,582.00
2023-04-03T01:07:28.973Z,581.00
2023-04-03T01:08:28.950Z,580.00
2023-04-03T01:09:28.987Z,579.00
2023-04-03T01:10:28.979Z,580.00
2023-04-03T01:11:29.020Z,580.00
2023-04-03T01:12:29.008Z,579.00
2023-04-03T01:13:28.986Z,580.00
2023-04-03T01:14:28.990Z,582.00
2023-04-03T01:15:29.049Z,581.00
2023-04-03T01:16:29.062Z,583.00
2023-04-03T01:17:29.108Z,581.00
2023-04-03T01:18:29.059Z,581.00
2023-04-03T01:19:29.051Z,580.00
2023-04-03T01:20:29.383Z,575.00
2023-04-03T01:21:29.090Z,577.00
2023-04-03T01:22:29.075Z,579.00
2023-04-03T01:23:29.104Z,578.00
2023-04-03T01:24:29.114Z,581.00
2023-04-03T01:25:29.147Z,581.00
2023-04-03T01:26:29.123Z,578.00
2023-04-03T01:27:29.104Z,578.00
2023-04-03T01:28:29.133Z,579.00
2023-04-03T01:29:29.139Z,581.00
2023-04-03T01:30:29.148Z,583.00
2023-04-03T01:31:29.197Z,583.00
2023-04-03T01:32:29.235Z,583.00
2023-04-03T01:33:29.206Z,584.00
2023-04-03T01:34:29.320Z,586.00
2023-04-03T01:35:29.224Z,586.00
2023-04-03T01:36:29.279Z,589.00
2023-04-03T01:37:29.282Z,588.00
2023-04-03T01:38:29.268Z,590.00
2023-04-03T01:39:29.297Z,589.00
2023-04-03T01:40:29.306Z,590.00
2023-04-03T01:41:29.305Z,589.00
2023-04-03T01:42:29.353Z,588.00
2023-04-03T01:43:29.358Z,588.00
2023-04-03T01:44:29.328Z,588.00
2023-04-03T01:45:29.387Z,592.00
2023-04-03T01:46:29.388Z,592.00
2023-04-03T01:47:29.418Z,591.00
2023-04-03T01:48:29.356Z,587.00
2023-04-03T01:49:29.412Z,586.00
2023-04-03T01:50:29.387Z,585.00
2023-04-03T01:51:29.403Z,585.00
2023-04-03T01:52:29.435Z,584.00
2023-04-03T01:53:29.422Z,584.00
2023-04-03T01:54:29.424Z,584.00
2023-04-03T01:55:29.445Z,583.00
2023-04-03T01:56:29.443Z,584.00
2023-04-03T01:57:29.496Z,580.00
2023-04-03T01:58:29.458Z,580.00
2023-04-03T01:59:29.477Z,581.00
2023-04-03T02:00:29.479Z,582.00
2023-04-03T02:01:29.501Z,582.00
2023-04-03T02:02:29.510Z,581.00
2023-04-03T02:03:29.509Z,584.00
2023-04-03T02:04:29.558Z,583.00
2023-04-03T02:05:29.519Z,583.00
2023-04-03T02:06:29.481Z,583.00
2023-04-03T02:07:29.504Z,582.00
2023-04-03T02:08:29.514Z,581.00
2023-04-03T02:09:29.505Z,582.00
2023-04-03T02:10:29.556Z,581.00
2023-04-03T02:11:29.569Z,578.00
2023-04-03T02:12:29.548Z,578.00
2023-04-03T02:13:29.639Z,576.00
2023-04-03T02:14:29.579Z,572.00
2023-04-03T02:15:29.614Z,573.00
2023-04-03T02:16:29.635Z,574.00
2023-04-03T02:17:29.624Z,577.00
2023-04-03T02:18:29.649Z,581.00
2023-04-03T02:19:29.642Z,582.00
2023-04-03T02:20:29.679Z,582.00
2023-04-03T02:21:29.671Z,580.00
2023-04-03T02:22:29.695Z,578.00
2023-04-03T02:23:29.695Z,576.00
2023-04-03T02:24:29.704Z,578.00
2023-04-03T02:25:29.716Z,578.00
2023-04-03T02:26:29.709Z,580.00
2023-04-03T02:27:29.725Z,577.00
2023-04-03T02:28:29.734Z,577.00
2023-04-03T02:29:29.733Z,578.00
2023-04-03T02:30:29.729Z,581.00
2023-04-03T02:31:29.844Z,581.00
2023-04-03T02:32:29.774Z,582.00
2023-04-03T02:33:29.767Z,582.00
2023-04-03T02:34:29.777Z,582.00
2023-04-03T02:35:29.886Z,580.00
2023-04-03T02:36:31.747Z,579.00
2023-04-03T02:37:30.030Z,578.00
2023-04-03T02:38:30.047Z,576.00
2023-04-03T02:39:30.032Z,577.00
2023-04-03T02:40:30.055Z,577.00
2023-04-03T02:41:30.032Z,577.00
2023-04-03T02:42:30.059Z,578.00
2023-04-03T02:43:30.044Z,578.00
2023-04-03T02:44:30.082Z,580.00
2023-04-03T02:45:30.078Z,579.00
2023-04-03T02:46:30.126Z,579.00
2023-04-03T02:47:30.123Z,578.00
2023-04-03T02:48:30.102Z,577.00
2023-04-03T02:49:30.113Z,577.00
2023-04-03T02:50:30.149Z,576.00
2023-04-03T02:51:30.124Z,579.00
2023-04-03T02:52:30.124Z,577.00
2023-04-03T02:53:30.131Z,576.00
2023-04-03T02:54:30.132Z,575.00
2023-04-03T02:55:30.164Z,575.00
2023-04-03T02:56:30.164Z,575.00
2023-04-03T02:57:30.228Z,574.00
2023-04-03T02:58:30.201Z,576.00
2023-04-03T02:59:30.192Z,576.00
2023-04-03T03:00:30.177Z,576.00
2023-04-03T03:01:30.251Z,577.00
2023-04-03T03:02:30.227Z,578.00
2023-04-03T03:03:30.223Z,579.00
2023-04-03T03:04:30.313Z,580.00
2023-04-03T03:05:30.247Z,578.00
2023-04-03T03:06:30.240Z,577.00
2023-04-03T03:07:30.247Z,576.00
2023-04-03T03:08:30.261Z,575.00
2023-04-03T03:09:30.248Z,576.00
2023-04-03T03:10:30.272Z,579.00
2023-04-03T03:11:30.309Z,581.00
2023-04-03T03:12:32.008Z,581.00
2023-04-03T03:13:30.331Z,581.00
2023-04-03T03:14:30.339Z,581.00
2023-04-03T03:15:30.320Z,581.00
2023-04-03T03:16:30.487Z,584.00
2023-04-03T03:17:30.394Z,582.00
2023-04-03T03:18:30.386Z,580.00
2023-04-03T03:19:30.359Z,578.00
2023-04-03T03:20:30.432Z,577.00
2023-04-03T03:21:30.917Z,576.00
2023-04-03T03:22:31.807Z,578.00
2023-04-03T03:23:30.423Z,576.00
2023-04-03T03:24:30.449Z,575.00
2023-04-03T03:25:30.452Z,576.00
2023-04-03T03:26:30.459Z,576.00
2023-04-03T03:27:30.437Z,577.00
2023-04-03T03:28:30.454Z,579.00
2023-04-03T03:29:30.459Z,579.00
2023-04-03T03:30:30.466Z,578.00
2023-04-03T03:31:30.529Z,576.00
2023-04-03T03:32:30.563Z,577.00
2023-04-03T03:33:30.495Z,575.00
2023-04-03T03:34:30.496Z,576.00
2023-04-03T03:35:30.529Z,579.00
2023-04-03T03:36:30.545Z,577.00
2023-04-03T03:37:30.536Z,578.00
2023-04-03T03:38:30.591Z,577.00
2023-04-03T03:39:30.556Z,576.00
2023-04-03T03:40:30.583Z,576.00
2023-04-03T03:41:30.623Z,577.00
2023-04-03T03:42:30.609Z,577.00
2023-04-03T03:43:30.636Z,580.00
2023-04-03T03:44:30.649Z,582.00
2023-04-03T03:45:30.666Z,582.00
2023-04-03T03:46:30.723Z,585.00
2023-04-03T03:47:30.684Z,586.00
2023-04-03T03:48:30.720Z,586.00
2023-04-03T03:49:30.737Z,583.00
2023-04-03T03:50:30.765Z,583.00
2023-04-03T03:51:30.743Z,582.00
2023-04-03T03:52:30.798Z,579.00
2023-04-03T03:53:30.800Z,582.00
2023-04-03T03:54:30.829Z,582.00
2023-04-03T03:55:30.809Z,583.00
2023-04-03T03:56:30.840Z,584.00
2023-04-03T03:57:30.961Z,585.00
2023-04-03T03:58:30.873Z,585.00
2023-04-03T03:59:30.904Z,583.00
2023-04-03T04:00:30.914Z,582.00
2023-04-03T04:01:30.956Z,584.00
2023-04-03T04:02:30.970Z,580.00
2023-04-03T04:03:31.069Z,579.00
2023-04-03T04:04:30.992Z,579.00
2023-04-03T04:05:30.987Z,579.00
2023-04-03T04:06:31.013Z,579.00
2023-04-03T04:07:31.022Z,579.00
2023-04-03T04:08:31.076Z,576.00
2023-04-03T04:09:31.085Z,578.00
2023-04-03T04:10:31.085Z,579.00
2023-04-03T04:11:31.099Z,581.00
2023-04-03T04:12:31.102Z,580.00
2023-04-03T04:13:31.146Z,581.00
2023-04-03T04:14:31.172Z,583.00
2023-04-03T04:15:31.188Z,583.00
2023-04-03T04:16:31.187Z,584.00
2023-04-03T04:17:31.244Z,583.00
2023-04-03T04:18:31.203Z,585.00
2023-04-03T04:19:31.239Z,586.00
2023-04-03T04:20:31.245Z,586.00
2023-04-03T04:21:31.265Z,585.00
2023-04-03T04:22:31.274Z,585.00
2023-04-03T04:23:31.278Z,583.00
2023-04-03T04:24:31.300Z,583.00
2023-04-03T04:25:31.330Z,583.00
2023-04-03T04:26:31.352Z,581.00
2023-04-03T04:27:31.370Z,579.00
2023-04-03T04:28:31.415Z,579.00
2023-04-03T04:29:31.417Z,579.00
2023-04-03T04:30:31.433Z,579.00
2023-04-03T04:31:31.465Z,582.00
2023-04-03T04:32:31.512Z,581.00
2023-04-03T04:33:31.481Z,582.00
2023-04-03T04:34:31.564Z,582.00
2023-04-03T04:35:31.597Z,583.00
2023-04-03T04:36:31.678Z,584.00
2023-04-03T04:37:31.590Z,583.00
2023-04-03T04:38:31.610Z,584.00
2023-04-03T04:39:31.620Z,585.00
2023-04-03T04:40:31.675Z,586.00
2023-04-03T04:41:31.659Z,586.00
2023-04-03T04:42:31.723Z,587.00
2023-04-03T04:43:31.722Z,587.00
2023-04-03T04:44:31.774Z,584.00
2023-04-03T04:45:31.772Z,581.00
2023-04-03T04:46:31.822Z,578.00
2023-04-03T04:47:31.851Z,580.00
2023-04-03T04:48:32.775Z,582.00
2023-04-03T04:49:31.859Z,583.00
2023-04-03T04:50:31.870Z,582.00
2023-04-03T04:51:41.131Z,582.00
2023-04-03T04:52:32.920Z,581.00
2023-04-03T04:53:31.869Z,583.00
2023-04-03T04:54:31.859Z,583.00
2023-04-03T04:55:31.892Z,583.00
2023-04-03T04:56:31.875Z,580.00
2023-04-03T04:57:31.918Z,581.00
2023-04-03T04:58:31.854Z,583.00
2023-04-03T04:59:31.856Z,583.00
2023-04-03T05:00:39.442Z,584.00
2023-04-03T05:01:31.882Z,582.00
2023-04-03T05:02:31.859Z,578.00
2023-04-03T05:03:31.825Z,578.00
2023-04-03T05:04:31.849Z,579.00
2023-04-03T05:05:31.850Z,579.00
2023-04-03T05:06:31.817Z,575.00
2023-04-03T05:07:31.792Z,574.00
2023-04-03T05:08:31.797Z,576.00
2023-04-03T05:09:31.766Z,578.00
2023-04-03T05:10:31.773Z,581.00
2023-04-03T05:11:31.772Z,580.00
2023-04-03T05:12:31.752Z,580.00
2023-04-03T05:13:31.769Z,580.00
2023-04-03T05:14:31.766Z,581.00
2023-04-03T05:15:31.749Z,582.00
2023-04-03T05:16:31.870Z,583.00
2023-04-03T05:17:31.762Z,583.00
2023-04-03T05:18:31.745Z,583.00
2023-04-03T05:19:31.828Z,586.00
2023-04-03T05:20:31.711Z,585.00
2023-04-03T05:21:31.686Z,583.00
2023-04-03T05:22:31.666Z,582.00
2023-04-03T05:23:31.733Z,581.00
2023-04-03T05:24:31.713Z,578.00
2023-04-03T05:25:31.773Z,576.00
2023-04-03T05:26:31.788Z,578.00
2023-04-03T05:27:31.802Z,579.00
2023-04-03T05:28:31.778Z,579.00
2023-04-03T05:29:31.828Z,580.00
2023-04-03T05:30:31.848Z,581.00
2023-04-03T05:31:31.876Z,583.00
2023-04-03T05:32:31.890Z,585.00
2023-04-03T05:33:31.878Z,585.00
2023-04-03T05:34:31.881Z,582.00
2023-04-03T05:35:31.948Z,582.00
2023-04-03T05:36:31.938Z,577.00
2023-04-03T05:37:31.989Z,576.00
2023-04-03T05:38:31.995Z,576.00
2023-04-03T05:39:31.995Z,575.00
2023-04-03T05:40:32.000Z,575.00
2023-04-03T05:41:32.042Z,576.00
2023-04-03T05:42:32.070Z,576.00
2023-04-03T05:43:32.026Z,580.00
2023-04-03T05:44:32.088Z,581.00
2023-04-03T05:45:32.137Z,582.00
2023-04-03T05:46:39.553Z,582.00
2023-04-03T05:47:32.210Z,581.00
2023-04-03T05:48:32.117Z,581.00
2023-04-03T05:49:32.180Z,582.00
2023-04-03T05:50:32.085Z,583.00
2023-04-03T05:51:32.096Z,585.00
2023-04-03T05:52:32.100Z,584.00
2023-04-03T05:53:32.077Z,585.00
2023-04-03T05:54:32.070Z,584.00
2023-04-03T05:55:32.125Z,584.00
2023-04-03T05:56:32.072Z,584.00
2023-04-03T05:57:32.160Z,584.00
2023-04-03T05:58:32.052Z,585.00
2023-04-03T05:59:32.018Z,585.00
2023-04-03T06:00:32.029Z,585.00
2023-04-03T06:01:32.104Z,585.00
2023-04-03T06:02:32.075Z,587.00
2023-04-03T06:03:32.149Z,589.00
2023-04-03T06:04:32.114Z,589.00
2023-04-03T06:05:31.993Z,588.00
2023-04-03T06:06:31.965Z,589.00
2023-04-03T06:07:31.966Z,589.00
2023-04-03T06:08:31.961Z,591.00
2023-04-03T06:09:31.942Z,590.00
2023-04-03T06:10:31.964Z,592.00
2023-04-03T06:11:31.984Z,589.00
2023-04-03T06:12:31.941Z,588.00
2023-04-03T06:13:31.956Z,588.00
2023-04-03T06:14:31.971Z,592.00
2023-04-03T06:15:32.023Z,592.00
2023-04-03T06:16:31.969Z,591.00
2023-04-03T06:17:31.929Z,592.00
2023-04-03T06:18:31.934Z,593.00
2023-04-03T06:19:31.958Z,589.00
2023-04-03T06:20:31.925Z,588.00
2023-04-03T06:21:31.929Z,589.00
2023-04-03T06:22:31.959Z,588.00
2023-04-03T06:23:31.975Z,587.00
2023-04-03T06:24:31.997Z,586.00
2023-04-03T06:25:31.992Z,583.00
2023-04-03T06:26:32.050Z,584.00
2023-04-03T06:27:32.058Z,587.00
2023-04-03T06:28:32.067Z,586.00
2023-04-03T06:29:32.052Z,586.00
2023-04-03T06:30:32.072Z,587.00
2023-04-03T06:31:32.131Z,586.00
2023-04-03T06:32:32.131Z,587.00
2023-04-03T06:33:32.100Z,586.00
2023-04-03T06:34:32.112Z,585.00
2023-04-03T06:35:32.193Z,585.00
2023-04-03T06:36:32.148Z,587.00
2023-04-03T06:37:32.145Z,584.00
2023-04-03T06:38:32.174Z,584.00
2023-04-03T06:39:32.192Z,587.00
2023-04-03T06:40:32.189Z,588.00
2023-04-03T06:41:32.403Z,590.00
2023-04-03T06:42:32.575Z,588.00
2023-04-03T06:43:33.910Z,588.00
2023-04-03T06:44:32.274Z,589.00
2023-04-03T06:45:32.236Z,590.00
2023-04-03T06:46:32.358Z,589.00
2023-04-03T06:47:32.312Z,590.00
2023-04-03T06:48:32.269Z,590.00
2023-04-03T06:49:32.338Z,589.00
2023-04-03T06:50:32.316Z,585.00
2023-04-03T06:51:32.313Z,587.00
2023-04-03T06:52:32.329Z,588.00
2023-04-03T06:53:32.331Z,588.00
2023-04-03T06:54:32.481Z,588.00
2023-04-03T06:55:32.383Z,586.00
2023-04-03T06:56:32.408Z,585.00
2023-04-03T06:57:32.534Z,584.00
2023-04-03T06:58:32.404Z,585.00
2023-04-03T06:59:32.418Z,584.00
2023-04-03T07:00:32.453Z,584.00
2023-04-03T07:01:32.465Z,586.00
2023-04-03T07:02:32.489Z,588.00
2023-04-03T07:03:33.441Z,587.00
2023-04-03T07:04:32.523Z,587.00
2023-04-03T07:05:32.452Z,587.00
2023-04-03T07:06:32.459Z,586.00
2023-04-03T07:07:32.513Z,586.00
2023-04-03T07:08:32.471Z,587.00
2023-04-03T07:09:32.633Z,586.00
2023-04-03T07:10:32.502Z,588.00
2023-04-03T07:11:32.576Z,587.00
2023-04-03T07:12:32.537Z,585.00
2023-04-03T07:13:32.551Z,585.00
2023-04-03T07:14:32.546Z,585.00
2023-04-03T07:15:32.600Z,585.00
2023-04-03T07:16:32.808Z,585.00
2023-04-03T07:17:32.632Z,584.00
2023-04-03T07:18:32.614Z,581.00
2023-04-03T07:19:32.664Z,583.00
2023-04-03T07:20:32.632Z,587.00
2023-04-03T07:21:32.649Z,585.00
2023-04-03T07:22:32.700Z,585.00
2023-04-03T07:23:32.705Z,586.00
2023-04-03T07:24:32.705Z,587.00
2023-04-03T07:25:32.714Z,586.00
2023-04-03T07:26:32.721Z,586.00
2023-04-03T07:27:32.713Z,585.00
2023-04-03T07:28:32.718Z,588.00
2023-04-03T07:29:32.730Z,588.00
2023-04-03T07:30:32.742Z,587.00
2023-04-03T07:31:32.794Z,583.00
2023-04-03T07:32:32.805Z,582.00
2023-04-03T07:33:32.786Z,582.00
2023-04-03T07:34:32.761Z,584.00
2023-04-03T07:35:32.819Z,584.00
2023-04-03T07:36:32.858Z,584.00
2023-04-03T07:37:32.833Z,582.00
2023-04-03T07:38:32.801Z,583.00
2023-04-03T07:39:32.828Z,585.00
2023-04-03T07:40:32.817Z,588.00
2023-04-03T07:41:32.841Z,590.00
2023-04-03T07:42:32.873Z,589.00
2023-04-03T07:43:32.835Z,590.00
2023-04-03T07:44:32.864Z,590.00
2023-04-03T07:45:32.914Z,591.00
2023-04-03T07:46:32.864Z,591.00
2023-04-03T07:47:32.932Z,589.00
2023-04-03T07:48:32.869Z,591.00
2023-04-03T07:49:32.911Z,593.00
2023-04-03T07:50:32.908Z,593.00
2023-04-03T07:51:32.918Z,591.00
2023-04-03T07:52:32.911Z,591.00
2023-04-03T07:53:32.957Z,589.00
2023-04-03T07:54:32.905Z,590.00
2023-04-03T07:55:33.703Z,591.00
2023-04-03T07:56:32.935Z,591.00
2023-04-03T07:57:33.076Z,589.00
2023-04-03T07:58:32.905Z,585.00
2023-04-03T07:59:32.913Z,586.00
2023-04-03T08:00:32.917Z,587.00
2023-04-03T08:01:32.946Z,588.00
2023-04-03T08:02:32.946Z,588.00
2023-04-03T08:03:33.047Z,588.00
2023-04-03T08:04:32.964Z,587.00
2023-04-03T08:05:32.956Z,587.00
2023-04-03T08:06:44.796Z,586.00
2023-04-03T08:07:34.001Z,586.00
2023-04-03T08:08:32.932Z,588.00
2023-04-03T08:09:32.890Z,589.00
2023-04-03T08:10:32.919Z,590.00
2023-04-03T08:11:32.887Z,591.00
2023-04-03T08:12:32.927Z,590.00
2023-04-03T08:13:32.903Z,589.00
2023-04-03T08:14:32.869Z,591.00
2023-04-03T08:15:32.894Z,592.00
2023-04-03T08:16:32.903Z,590.00
2023-04-03T08:17:32.889Z,590.00
2023-04-03T08:18:32.878Z,590.00
2023-04-03T08:19:32.856Z,587.00
2023-04-03T08:20:32.833Z,587.00
2023-04-03T08:21:32.857Z,588.00
2023-04-03T08:22:32.869Z,589.00
2023-04-03T08:23:32.848Z,589.00
2023-04-03T08:24:32.818Z,588.00
2023-04-03T08:25:32.808Z,589.00
2023-04-03T08:26:32.792Z,588.00
2023-04-03T08:27:32.800Z,587.00
2023-04-03T08:28:32.800Z,588.00
2023-04-03T08:29:33.658Z,591.00
2023-04-03T08:30:32.758Z,594.00
2023-04-03T08:31:32.771Z,593.00
2023-04-03T08:32:32.877Z,590.00
2023-04-03T08:33:32.727Z,590.00
2023-04-03T08:34:32.739Z,587.00
2023-04-03T08:35:32.732Z,586.00
2023-04-03T08:36:32.721Z,587.00
2023-04-03T08:37:32.689Z,586.00
2023-04-03T08:38:32.700Z,585.00
2023-04-03T08:39:32.717Z,585.00
2023-04-03T08:40:32.767Z,585.00
2023-04-03T08:41:32.693Z,588.00
2023-04-03T08:42:32.693Z,592.00
2023-04-03T08:43:32.684Z,592.00
2023-04-03T08:44:32.709Z,594.00
2023-04-03T08:45:32.671Z,594.00
2023-04-03T08:46:32.670Z,596.00
2023-04-03T08:47:32.725Z,595.00
2023-04-03T08:48:32.665Z,592.00
2023-04-03T08:49:32.717Z,592.00
2023-04-03T08:50:32.764Z,592.00
2023-04-03T08:51:32.823Z,593.00
2023-04-03T08:52:32.893Z,593.00
2023-04-03T08:53:32.993Z,592.00
2023-04-03T08:54:34.738Z,592.00
2023-04-03T08:55:33.196Z,593.00
2023-04-03T08:56:34.088Z,595.00
2023-04-03T08:57:33.309Z,595.00
2023-04-03T08:58:33.258Z,595.00
2023-04-03T08:59:33.294Z,594.00
2023-04-03T09:00:33.362Z,593.00
2023-04-03T09:01:33.454Z,593.00
2023-04-03T09:02:33.544Z,593.00
2023-04-03T09:03:33.596Z,592.00
2023-04-03T09:04:33.611Z,593.00
2023-04-03T09:05:33.682Z,592.00
2023-04-03T09:06:33.786Z,592.00
2023-04-03T09:07:33.810Z,590.00
2023-04-03T09:08:33.866Z,589.00
2023-04-03T09:09:33.918Z,587.00
2023-04-03T09:10:33.982Z,586.00
2023-04-03T09:11:34.104Z,584.00
2023-04-03T09:12:34.054Z,583.00
2023-04-03T09:13:34.155Z,583.00
2023-04-03T09:14:34.211Z,583.00
2023-04-03T09:15:39.030Z,583.00
2023-04-03T09:16:35.322Z,584.00
2023-04-03T09:17:34.298Z,585.00
2023-04-03T09:18:34.256Z,586.00
2023-04-03T09:19:34.276Z,584.00
2023-04-03T09:20:34.257Z,584.00
2023-04-03T09:21:34.213Z,584.00
2023-04-03T09:22:39.171Z,584.00
2023-04-03T09:23:35.217Z,587.00
2023-04-03T09:24:34.208Z,587.00
2023-04-03T09:25:34.321Z,586.00
2023-04-03T09:26:34.197Z,585.00
2023-04-03T09:27:34.320Z,587.00
2023-04-03T09:28:39.237Z,587.00
2023-04-03T09:29:35.273Z,587.00
2023-04-03T09:30:34.241Z,589.00
2023-04-03T09:31:34.280Z,590.00
2023-04-03T09:32:34.272Z,588.00
2023-04-03T09:33:34.225Z,588.00
2023-04-03T09:34:34.194Z,586.00
2023-04-03T09:35:44.678Z,586.00
2023-04-03T09:36:35.210Z,586.00
2023-04-03T09:37:34.202Z,587.00
2023-04-03T09:38:34.230Z,588.00
2023-04-03T09:39:34.173Z,588.00
2023-04-03T09:40:34.162Z,586.00
2023-04-03T09:41:34.179Z,588.00
2023-04-03T09:42:34.152Z,587.00
2023-04-03T09:43:34.274Z,588.00
2023-04-03T09:44:34.158Z,589.00
2023-04-03T09:45:34.180Z,590.00
2023-04-03T09:46:34.257Z,591.00
2023-04-03T09:47:34.310Z,590.00
2023-04-03T09:48:34.274Z,592.00
2023-04-03T09:49:34.341Z,592.00
2023-04-03T09:50:34.402Z,593.00
2023-04-03T09:51:34.444Z,592.00
2023-04-03T09:52:34.557Z,593.00
2023-04-03T09:53:34.613Z,592.00
2023-04-03T09:54:34.585Z,590.00
2023-04-03T09:55:34.616Z,590.00
2023-04-03T09:56:34.649Z,588.00
2023-04-03T09:57:34.829Z,587.00
2023-04-03T09:58:46.863Z,587.00
2023-04-03T09:59:35.955Z,586.00
2023-04-03T10:00:34.774Z,585.00
2023-04-03T10:01:34.854Z,585.00
2023-04-03T10:02:34.753Z,582.00
2023-04-03T10:03:34.819Z,584.00
2023-04-03T10:04:34.790Z,584.00
2023-04-03T10:05:34.729Z,586.00
2023-04-03T10:06:34.737Z,584.00
2023-04-03T10:07:34.703Z,584.00
2023-04-03T10:08:34.753Z,585.00
2023-04-03T10:09:34.772Z,583.00
2023-04-03T10:10:34.926Z,585.00
2023-04-03T10:11:34.923Z,583.00
2023-04-03T10:12:34.968Z,585.00
2023-04-03T10:13:45.170Z,585.00
2023-04-03T10:14:35.995Z,586.00
2023-04-03T10:15:35.091Z,588.00
2023-04-03T10:16:35.075Z,587.00
2023-04-03T10:17:35.008Z,587.00
2023-04-03T10:18:35.106Z,587.00
2023-04-03T10:19:34.969Z,586.00
2023-04-03T10:20:34.966Z,586.00
2023-04-03T10:21:34.962Z,586.00
2023-04-03T10:22:35.010Z,583.00
2023-04-03T10:23:35.063Z,581.00
2023-04-03T10:24:35.103Z,579.00
2023-04-03T10:25:35.169Z,580.00
2023-04-03T10:26:35.203Z,580.00
2023-04-03T10:27:35.242Z,580.00
2023-04-03T10:28:35.308Z,580.00
2023-04-03T10:29:35.326Z,580.00
2023-04-03T10:30:35.673Z,580.00
2023-04-03T10:31:35.549Z,581.00
2023-04-03T10:32:35.487Z,582.00
2023-04-03T10:33:35.532Z,581.00
2023-04-03T10:34:35.582Z,582.00
2023-04-03T10:35:35.690Z,581.00
2023-04-03T10:36:35.644Z,583.00
2023-04-03T10:37:35.741Z,584.00
2023-04-03T10:38:35.799Z,584.00
2023-04-03T10:39:35.824Z,583.00
2023-04-03T10:40:36.321Z,585.00
2023-04-03T10:41:35.980Z,583.00
2023-04-03T10:42:36.031Z,584.00
2023-04-03T10:43:36.090Z,585.00
2023-04-03T10:44:36.191Z,584.00
2023-04-03T10:45:36.176Z,581.00
2023-04-03T10:46:36.308Z,581.00
2023-04-03T10:47:39.388Z,582.00
2023-04-03T10:48:36.318Z,583.00
2023-04-03T10:49:36.555Z,584.00
2023-04-03T10:50:36.410Z,582.00
2023-04-03T10:51:36.254Z,578.00
2023-04-03T10:52:36.247Z,578.00
2023-04-03T10:53:36.258Z,580.00
2023-04-03T10:54:36.241Z,578.00
2023-04-03T10:55:36.279Z,580.00
2023-04-03T10:56:36.225Z,581.00
2023-04-03T10:57:36.276Z,583.00
2023-04-03T10:58:36.233Z,584.00
2023-04-03T10:59:36.224Z,586.00
2023-04-03T11:00:36.409Z,587.00
2023-04-03T11:01:36.280Z,586.00
2023-04-03T11:02:36.310Z,589.00
2023-04-03T11:03:36.386Z,588.00
2023-04-03T11:04:36.189Z,589.00
2023-04-03T11:05:36.432Z,590.00
2023-04-03T11:06:36.191Z,591.00
2023-04-03T11:07:36.204Z,590.00
2023-04-03T11:08:36.264Z,587.00
2023-04-03T11:09:36.147Z,583.00
2023-04-03T11:10:36.167Z,583.00
2023-04-03T11:11:36.122Z,582.00
2023-04-03T11:12:36.141Z,581.00
2023-04-03T11:13:36.102Z,581.00
2023-04-03T11:14:36.117Z,582.00
2023-04-03T11:15:36.439Z,584.00
2023-04-03T11:16:43.613Z,582.00
2023-04-03T11:17:37.153Z,583.00
2023-04-03T11:18:36.116Z,585.00
2023-04-03T11:19:36.245Z,584.00
2023-04-03T11:20:36.080Z,585.00
2023-04-03T11:21:36.063Z,585.00
2023-04-03T11:22:36.125Z,585.00
2023-04-03T11:23:49.015Z,585.00
2023-04-03T11:24:37.073Z,585.00
2023-04-03T11:25:36.254Z,585.00
2023-04-03T11:26:36.039Z,582.00
2023-04-03T11:27:36.066Z,581.00
2023-04-03T11:28:36.040Z,584.00
2023-04-03T11:29:36.244Z,583.00
2023-04-03T11:30:35.995Z,583.00
2023-04-03T11:31:36.033Z,581.00
2023-04-03T11:32:36.053Z,581.00
2023-04-03T11:33:36.094Z,582.00
2023-04-03T11:34:36.174Z,583.00
2023-04-03T11:35:36.616Z,582.00
2023-04-03T11:36:37.268Z,582.00
2023-04-03T11:37:36.344Z,583.00
2023-04-03T11:38:36.416Z,586.00
2023-04-03T11:39:36.413Z,585.00
2023-04-03T11:40:36.470Z,584.00
2023-04-03T11:41:36.536Z,584.00
2023-04-03T11:42:36.671Z,586.00
2023-04-03T11:43:36.650Z,587.00
2023-04-03T11:44:36.722Z,586.00
2023-04-03T11:45:37.169Z,586.00
2023-04-03T11:46:36.893Z,582.00
2023-04-03T11:47:36.956Z,581.00
2023-04-03T11:48:37.006Z,581.00
2023-04-03T11:49:36.993Z,582.00
2023-04-03T11:50:37.070Z,582.00
2023-04-03T11:51:37.226Z,584.00
2023-04-03T11:52:37.181Z,582.00
2023-04-03T11:53:37.267Z,584.00
2023-04-03T11:54:44.369Z,584.00
2023-04-03T11:55:38.549Z,583.00
2023-04-03T11:56:37.361Z,584.00
2023-04-03T11:57:37.367Z,584.00
2023-04-03T11:58:37.331Z,583.00
2023-04-03T11:59:37.316Z,586.00
2023-04-03T12:00:37.277Z,587.00
2023-04-03T12:01:37.276Z,586.00
2023-04-03T12:02:51.269Z,584.00
2023-04-03T12:03:38.288Z,584.00
2023-04-03T12:04:37.254Z,584.00
2023-04-03T12:05:37.399Z,584.00
2023-04-03T12:06:37.240Z,584.00
2023-04-03T12:07:37.333Z,586.00
2023-04-03T12:08:37.255Z,584.00
2023-04-03T12:09:37.213Z,586.00
2023-04-03T12:10:37.220Z,584.00
2023-04-03T12:11:37.258Z,582.00
2023-04-03T12:12:37.302Z,582.00
2023-04-03T12:13:37.418Z,582.00
2023-04-03T12:14:37.412Z,587.00
2023-04-03T12:15:37.773Z,585.00
2023-04-03T12:16:37.569Z,583.00
2023-04-03T12:17:37.676Z,583.00
2023-04-03T12:18:37.646Z,583.00
2023-04-03T12:20:37.699Z,583.00
2023-04-03T12:21:37.716Z,584.00
2023-04-03T12:22:37.697Z,583.00
2023-04-03T12:23:37.772Z,583.00
2023-04-03T12:24:37.675Z,584.00
2023-04-03T12:25:37.883Z,584.00
2023-04-03T12:26:45.961Z,584.00
2023-04-03T12:27:38.631Z,585.00
2023-04-03T12:28:37.629Z,585.00
2023-04-03T12:29:38.870Z,585.00